Data for 04/27/2017

Time Sea-Level Adjusted Pressure Absolute Pressure Temperature Relative Humidity Dew Point   
(mb) (inHg) (mb) (inHg) (C) (F) (%) (C) (F)
00:05 1006 29.71 835 24.66 2.4 36.3 87 0.5 32.9
00:10 1006 29.71 835 24.66 2.4 36.2 88 0.5 33
00:15 1006 29.71 835 24.66 2.3 36.2 88 0.5 32.9
00:20 1006 29.71 835 24.66 2.4 36.3 88 0.5 32.9
00:25 1006 29.71 835 24.66 2.4 36.3 88 0.6 33
00:30 1006 29.71 835 24.66 2.4 36.4 87 0.5 33
00:35 1006 29.71 835 24.66 2.4 36.4 88 0.6 33.1
00:40 1006 29.71 835 24.66 2.5 36.4 88 0.6 33.1
00:45 1006 29.71 835 24.66 2.5 36.5 88 0.7 33.2
00:50 1006 29.71 835 24.66 2.5 36.5 88 0.7 33.2
00:55 1006 29.71 835 24.66 2.6 36.6 88 0.7 33.3
01:00 1006 29.71 835 24.66 2.6 36.7 88 0.7 33.3
01:05 1006 29.71 835 24.66 2.6 36.7 88 0.8 33.4
01:10 1006 29.71 835 24.66 2.6 36.7 88 0.9 33.5
01:15 1006 29.71 835 24.66 2.7 36.8 89 1 33.8
01:20 1006 29.71 835 24.66 2.8 37 89 1.1 34
01:25 1006 29.71 835 24.66 2.8 37 89 1.1 34
01:30 1006 29.71 835 24.66 2.7 36.9 89 1 33.9
01:35 1006 29.71 835 24.66 2.6 36.7 89 1 33.8
01:40 1006 29.71 835 24.66 2.6 36.7 89 0.9 33.7
01:45 1006 29.71 835 24.66 2.6 36.7 88 0.8 33.5
01:50 1006 29.71 835 24.66 2.5 36.6 89 0.9 33.5
01:55 1006 29.71 835 24.66 2.6 36.6 89 1 33.8
02:00 1006 29.71 835 24.66 2.7 36.9 89 1.1 34.1
02:05 1006 29.71 835 24.66 2.8 37.1 88 1 33.8
02:10 1006 29.71 835 24.66 2.8 37.1 88 1.1 33.9
02:15 1006 29.71 835 24.66 2.9 37.2 88 1.1 34
02:20 1006 29.71 835 24.66 2.8 37 88 0.9 33.7
02:25 1006 29.71 835 24.66 2.6 36.6 88 0.7 33.2
02:30 1006 29.71 835 24.66 2.3 36.2 88 0.5 32.9
02:35 1006 29.71 835 24.66 2.1 35.8 88 0.2 32.4
02:40 1006 29.71 835 24.66 1.9 35.4 89 0.2 32.3
02:45 1006 29.71 835 24.66 1.8 35.2 89 0.2 32.4
02:50 1006 29.71 835 24.66 1.6 34.9 90 0.1 32.2
02:55 1006 29.71 835 24.66 1.5 34.7 91 0.2 32.3
03:00 1006 29.71 835 24.66 1.5 34.6 90 0 32.1
03:05 1006 29.71 835 24.66 1.3 34.3 91 -0.1 31.9
03:10 1006 29.71 835 24.66 1.1 34.1 91 -0.1 31.7
03:15 1006 29.71 835 24.66 1.1 34.1 91 -0.1 31.8
03:20 1006 29.71 836 24.69 1.2 34.1 91 -0.2 31.7
03:25 1006 29.71 836 24.69 0.8 33.5 91 -0.5 31.1
03:30 1006 29.71 836 24.69 0.5 33 92 -0.6 30.8
03:35 1007 29.74 836 24.69 0.4 32.7 92 -0.7 30.7
03:40 1007 29.74 836 24.69 0.3 32.5 93 -0.8 30.6
03:45 1007 29.74 836 24.69 0.2 32.4 93 -0.8 30.6
03:50 1007 29.74 836 24.69 0.3 32.5 93 -0.7 30.7
03:55 1007 29.74 836 24.69 0.3 32.6 93 -0.7 30.8
04:00 1007 29.74 836 24.69 0.4 32.7 93 -0.6 31
04:05 1007 29.74 836 24.69 0.4 32.8 93 -0.6 31
04:10 1007 29.74 836 24.69 0.5 32.9 93 -0.5 31
04:15 1007 29.74 836 24.69 0.5 33 93 -0.5 31.1
04:20 1007 29.74 836 24.69 0.6 33 93 -0.5 31.1
04:25 1007 29.74 836 24.69 0.6 33 92 -0.5 31
04:30 1007 29.74 836 24.69 0.6 33.1 92 -0.5 31
04:35 1007 29.74 836 24.69 0.6 33.1 92 -0.5 31.1
04:40 1007 29.74 836 24.69 0.7 33.2 92 -0.5 31
04:45 1007 29.74 836 24.69 0.7 33.2 92 -0.5 31
04:50 1007 29.74 836 24.69 0.6 33 92 -0.6 30.9
04:55 1007 29.74 836 24.69 0.5 32.9 92 -0.6 30.9
05:00 1007 29.74 836 24.69 0.4 32.8 93 -0.6 30.9
05:05 1007 29.74 836 24.69 0.4 32.7 93 -0.7 30.8
05:10 1007 29.74 836 24.69 0.4 32.7 93 -0.6 30.8
05:15 1007 29.74 836 24.69 0.3 32.6 93 -0.7 30.8
05:20 1007 29.74 836 24.69 0.3 32.6 93 -0.7 30.8
05:25 1007 29.74 836 24.69 0.3 32.5 93 -0.7 30.7
05:30 1007 29.74 836 24.69 0.2 32.4 93 -0.8 30.6
05:35 1007 29.74 836 24.69 0.2 32.4 94 -0.7 30.8
05:40 1007 29.74 837 24.72 0.3 32.5 93 -0.6 30.8
05:45 1007 29.74 837 24.72 0.3 32.5 94 -0.6 30.9
05:50 1007 29.74 837 24.72 0.3 32.5 94 -0.6 30.9
05:55 1007 29.74 837 24.72 0.3 32.6 94 -0.6 30.9
06:00 1007 29.74 837 24.72 0.3 32.5 94 -0.6 30.9
06:05 1007 29.74 837 24.72 0.3 32.5 94 -0.6 30.9
06:10 1008 29.77 837 24.72 0.3 32.5 93 -0.6 30.8
06:15 1008 29.77 837 24.72 0.3 32.5 94 -0.6 30.9
06:20 1008 29.77 837 24.72 0.3 32.6 93 -0.6 30.9
06:25 1008 29.77 837 24.72 0.3 32.5 93 -0.7 30.8
06:30 1008 29.77 837 24.72 0.3 32.5 93 -0.7 30.7
06:35 1008 29.77 837 24.72 0.2 32.4 93 -0.7 30.7
06:40 1008 29.77 837 24.72 0.3 32.5 93 -0.8 30.6
06:45 1008 29.77 837 24.72 0.2 32.4 93 -0.8 30.6
06:50 1008 29.77 837 24.72 0.3 32.5 93 -0.8 30.6
06:55 1008 29.77 837 24.72 0.2 32.4 93 -0.8 30.6
07:00 1008 29.77 837 24.72 0.2 32.4 93 -0.8 30.6
07:05 1008 29.77 837 24.72 0.3 32.5 93 -0.7 30.7
07:10 1008 29.77 837 24.72 0.3 32.6 93 -0.7 30.8
07:15 1008 29.77 837 24.72 0.3 32.6 93 -0.7 30.8
07:20 1008 29.77 837 24.72 0.4 32.7 93 -0.6 30.9
07:25 1008 29.77 837 24.72 0.4 32.7 93 -0.6 30.9
07:30 1008 29.77 837 24.72 0.4 32.6 93 -0.6 30.9
07:35 1008 29.77 837 24.72 0.4 32.7 93 -0.6 30.9
07:40 1008 29.77 837 24.72 0.4 32.6 93 -0.6 30.8
07:45 1008 29.77 837 24.72 0.4 32.7 93 -0.6 30.9
07:50 1008 29.77 837 24.72 0.4 32.7 93 -0.6 30.9
07:55 1008 29.77 837 24.72 0.4 32.7 93 -0.6 30.9
08:00 1008 29.77 837 24.72 0.4 32.7 93 -0.6 30.9
08:05 1008 29.77 837 24.72 0.4 32.7 93 -0.6 30.8
08:10 1008 29.77 838 24.75 0.4 32.7 93 -0.6 30.8
08:15 1008 29.77 838 24.75 0.4 32.8 93 -0.7 30.8
08:20 1008 29.77 838 24.75 0.5 32.8 92 -0.6 30.8
08:25 1008 29.77 838 24.75 0.5 33 92 -0.6 30.9
08:30 1008 29.77 838 24.75 0.6 33 92 -0.6 31
08:35 1008 29.77 838 24.75 0.6 33.1 92 -0.6 31
08:40 1008 29.77 838 24.75 0.6 33.1 91 -0.6 30.9
08:45 1009 29.8 838 24.75 0.6 33.1 92 -0.6 30.9
08:50 1009 29.8 838 24.75 0.7 33.2 91 -0.6 31
08:55 1009 29.8 838 24.75 0.6 33.1 92 -0.6 30.9
09:00 1009 29.8 838 24.75 0.7 33.2 92 -0.5 31
09:05 1009 29.8 838 24.75 0.8 33.4 91 -0.5 31.2
09:10 1009 29.8 838 24.75 0.9 33.5 91 -0.5 31.2
09:15 1009 29.8 838 24.75 0.8 33.5 91 -0.5 31.1
09:20 1009 29.8 838 24.75 0.9 33.7 91 -0.4 31.2
09:25 1009 29.8 838 24.75 1 33.9 91 -0.3 31.4
09:30 1009 29.8 838 24.75 1.1 33.9 90 -0.4 31.3
09:35 1009 29.8 838 24.75 0.8 33.5 91 -0.5 31.1
09:40 1009 29.8 838 24.75 0.7 33.3 91 -0.6 31
09:45 1009 29.8 838 24.75 0.8 33.4 91 -0.5 31.2
09:50 1009 29.8 838 24.75 0.9 33.6 91 -0.4 31.2
09:55 1009 29.8 838 24.75 0.9 33.5 91 -0.5 31.2
10:00 1009 29.8 838 24.75 0.9 33.7 90 -0.6 31
10:05 1009 29.8 838 24.75 0.9 33.6 90 -0.6 30.9
10:10 1009 29.8 838 24.75 1 33.8 89 -0.6 30.9
10:15 1009 29.8 838 24.75 0.9 33.6 89 -0.8 30.6
10:20 1009 29.8 838 24.75 1.1 34 88 -0.7 30.8
10:25 1009 29.8 838 24.75 1.2 34.1 88 -0.6 30.8
10:30 1009 29.8 838 24.75 1.3 34.4 86 -0.7 30.7
10:35 1009 29.8 838 24.75 1.4 34.6 84 -1 30.3
10:40 1009 29.8 838 24.75 1.7 35 83 -0.9 30.3
10:45 1009 29.8 838 24.75 1.7 35.1 82 -1 30.2
10:50 1009 29.8 838 24.75 1.6 34.9 82 -1.2 29.8
10:55 1009 29.8 838 24.75 1.4 34.6 82 -1.3 29.7
11:00 1009 29.8 838 24.75 1.6 34.9 81 -1.4 29.5
11:05 1009 29.8 838 24.75 1.5 34.8 81 -1.4 29.4
11:10 1009 29.8 838 24.75 1.9 35.4 79 -1.3 29.6
11:15 1009 29.8 838 24.75 1.9 35.4 80 -1.2 29.8
11:20 1009 29.8 838 24.75 2 35.6 78 -1.4 29.5
11:25 1009 29.8 838 24.75 2.1 35.7 78 -1.4 29.5
11:30 1009 29.8 838 24.75 2 35.6 77 -1.6 29
11:35 1009 29.8 838 24.75 2.1 35.8 76 -1.7 28.9
11:40 1009 29.8 838 24.75 2.2 36 76 -1.5 29.3
11:45 1009 29.8 838 24.75 2.5 36.6 76 -1.2 29.9
11:50 1009 29.8 838 24.75 2.4 36.3 77 -1.2 29.9
11:55 1009 29.8 838 24.75 2 35.6 79 -1.3 29.6
12:00 1009 29.8 838 24.75 1.9 35.4 81 -1.1 30.1
12:05 1009 29.8 838 24.75 1.7 35.1 82 -1 30.3
12:10 1009 29.8 838 24.75 1.5 34.8 83 -1 30.2
12:15 1009 29.8 838 24.75 1.6 34.9 82 -1.1 29.9
12:20 1009 29.8 838 24.75 1.7 35.1 82 -1 30.2
12:25 1009 29.8 838 24.75 1.9 35.4 80 -1.2 29.9
12:30 1009 29.8 838 24.75 1.9 35.5 79 -1.4 29.6
12:35 1009 29.8 838 24.75 2.2 36 79 -1 30.2
12:40 1009 29.8 838 24.75 2.2 36 78 -1.2 29.9
12:45 1009 29.8 838 24.75 1.6 34.8 84 -0.8 30.6
12:50 1009 29.8 838 24.75 1.2 34.1 84 -1.2 29.9
12:55 1009 29.8 838 24.75 1.4 34.5 85 -0.9 30.4
13:00 1009 29.8 838 24.75 1.3 34.3 87 -0.7 30.7
13:05 1009 29.8 838 24.75 1 33.7 89 -0.7 30.7
13:10 1009 29.8 838 24.75 1 33.7 89 -0.7 30.7
13:15 1009 29.8 838 24.75 0.8 33.5 89 -0.7 30.7
13:20 1009 29.8 838 24.75 1 33.8 89 -0.7 30.8
13:25 1009 29.8 838 24.75 1.5 34.6 88 -0.3 31.4
13:30 1009 29.8 838 24.75 1.6 34.9 88 -0.2 31.6
13:35 1009 29.8 839 24.78 1.7 35 88 -0.1 31.8
13:40 1009 29.8 839 24.78 2 35.5 87 0.1 32.1
13:45 1009 29.8 838 24.75 2 35.6 84 -0.4 31.3
13:50 1009 29.8 838 24.75 1.7 35.1 85 -0.6 31
13:55 1009 29.8 838 24.75 1.7 35.1 83 -0.8 30.6
14:00 1009 29.8 838 24.75 2.2 36 82 -0.6 31
14:05 1009 29.8 838 24.75 2.8 37 81 -0.3 31.5
14:10 1009 29.8 838 24.75 3.3 37.9 79 0 32.1
14:15 1009 29.8 838 24.75 3.4 38.1 78 -0.1 31.9
14:20 1009 29.8 839 24.78 3 37.3 78 -0.6 31
14:25 1009 29.8 839 24.78 2.4 36.2 81 -0.6 30.8
14:30 1009 29.8 839 24.78 1.9 35.5 83 -0.7 30.8
14:35 1009 29.8 839 24.78 1.8 35.3 84 -0.6 30.8
14:40 1009 29.8 838 24.75 1.8 35.2 85 -0.5 31.1
14:45 1009 29.8 839 24.78 1.8 35.2 85 -0.4 31.2
14:50 1009 29.8 839 24.78 2.2 36 82 -0.5 31.2
14:55 1009 29.8 839 24.78 2.2 36 83 -0.3 31.4
15:00 1009 29.8 839 24.78 2.4 36.2 81 -0.6 31
15:05 1010 29.83 839 24.78 2.6 36.7 81 -0.3 31.4
15:10 1010 29.83 839 24.78 3.1 37.5 78 -0.3 31.4
15:15 1010 29.83 839 24.78 2.9 37.2 84 0.5 32.8
15:20 1010 29.83 839 24.78 1.8 35.3 88 -0 32
15:25 1010 29.83 839 24.78 1.4 34.6 87 -0.5 31.2
15:30 1010 29.83 839 24.78 1.1 33.9 89 -0.5 31.1
15:35 1010 29.83 839 24.78 1 33.8 90 -0.4 31.2
15:40 1010 29.83 839 24.78 1.5 34.7 90 -0 31.9
15:45 1010 29.83 839 24.78 2 35.6 88 0.2 32.3
15:50 1010 29.83 839 24.78 2.4 36.3 88 0.6 33
15:55 1010 29.83 839 24.78 2.6 36.6 85 0.3 32.6
16:00 1009 29.8 839 24.78 2.6 36.7 84 0.2 32.4
16:05 1009 29.8 839 24.78 2.6 36.8 84 0.2 32.4
16:10 1009 29.8 839 24.78 3 37.4 84 0.5 32.9
16:15 1009 29.8 839 24.78 3.4 38.1 80 0.3 32.5
16:20 1009 29.8 839 24.78 3.5 38.2 81 0.5 32.9
16:25 1009 29.8 839 24.78 3.7 38.6 72 -1 30.2
16:30 1009 29.8 839 24.78 4.1 39.4 73 -0.2 31.7
16:35 1009 29.8 839 24.78 4.1 39.3 76 0.2 32.4
16:40 1009 29.8 839 24.78 3.9 39.1 73 -0.5 31.1
16:45 1009 29.8 839 24.78 3.8 38.8 73 -0.7 30.8
16:50 1009 29.8 839 24.78 3.8 38.8 76 -0.1 31.8
16:55 1010 29.83 839 24.78 4.1 39.4 72 -0.5 31.1
17:00 1010 29.83 839 24.78 3.9 38.9 69 -1.3 29.6
17:05 1010 29.83 839 24.78 3.6 38.4 73 -0.8 30.6
17:10 1010 29.83 839 24.78 3.8 38.8 73 -0.7 30.8
17:15 1010 29.83 839 24.78 3.6 38.5 73 -0.7 30.8
17:20 1010 29.83 839 24.78 3.4 38.1 77 -0.2 31.6
17:25 1010 29.83 839 24.78 3.6 38.5 73 -0.7 30.7
17:30 1010 29.83 839 24.78 3.6 38.5 77 -0.1 31.7
17:35 1010 29.83 839 24.78 3.2 37.8 80 0.1 32.1
17:40 1010 29.83 839 24.78 3 37.3 80 -0.2 31.7
17:45 1010 29.83 839 24.78 2.9 37.1 80 -0.3 31.4
17:50 1010 29.83 839 24.78 2.8 37 78 -0.6 30.9
17:55 1010 29.83 839 24.78 3 37.4 76 -0.7 30.7
18:00 1010 29.83 839 24.78 3.1 37.5 79 -0.2 31.6
18:05 1010 29.83 839 24.78 3.3 37.9 76 -0.6 30.9
18:10 1010 29.83 839 24.78 3.3 38 75 -0.6 30.8
18:15 1010 29.83 839 24.78 3.6 38.4 72 -1 30.2
18:20 1010 29.83 840 24.81 3.8 38.9 74 -0.4 31.3
18:25 1010 29.83 840 24.81 3.3 38 79 0 32
18:30 1011 29.85 840 24.81 2.4 36.3 83 -0.1 31.7
18:35 1011 29.85 840 24.81 1.8 35.3 85 -0.4 31.3
18:40 1011 29.85 840 24.81 1.6 34.8 87 -0.4 31.2
18:45 1011 29.85 840 24.81 1.4 34.6 88 -0.4 31.3
18:50 1011 29.85 840 24.81 1.4 34.5 88 -0.4 31.3
18:55 1011 29.85 840 24.81 1.2 34.1 89 -0.5 31.2
19:00 1011 29.85 840 24.81 1.1 33.9 90 -0.5 31.2
19:05 1011 29.85 840 24.81 1.1 33.9 90 -0.3 31.4
19:10 1011 29.85 840 24.81 1.1 34 91 -0.2 31.6
19:15 1011 29.85 840 24.81 1.2 34.2 91 -0.2 31.7
19:20 1011 29.85 840 24.81 1.3 34.4 90 -0.1 31.8
19:25 1011 29.85 840 24.81 1.4 34.5 90 -0 31.9
19:30 1011 29.85 840 24.81 1.6 34.8 89 -0.1 31.8
19:35 1011 29.85 840 24.81 1.5 34.6 89 -0.2 31.7
19:40 1011 29.85 840 24.81 1.4 34.5 89 -0.2 31.6
19:45 1011 29.85 840 24.81 1.3 34.4 90 -0.2 31.6
19:50 1011 29.85 840 24.81 1.4 34.5 89 -0.2 31.6
19:55 1011 29.85 840 24.81 1.5 34.7 89 -0.1 31.8
20:00 1011 29.85 840 24.81 1.3 34.4 89 -0.3 31.4
20:05 1011 29.85 840 24.81 0.8 33.5 90 -0.5 31
20:10 1011 29.85 841 24.83 0.6 33.1 91 -0.6 30.8
20:15 1011 29.85 841 24.83 0.4 32.8 92 -0.7 30.8
20:20 1011 29.85 841 24.83 0.4 32.7 93 -0.7 30.8
20:25 1011 29.85 841 24.83 0.5 32.8 93 -0.6 30.9
20:30 1011 29.85 841 24.83 0.6 33 93 -0.5 31.1
20:35 1012 29.88 841 24.83 0.7 33.3 92 -0.4 31.3
20:40 1012 29.88 841 24.83 0.8 33.5 91 -0.4 31.3
20:45 1012 29.88 841 24.83 0.9 33.7 91 -0.4 31.3
20:50 1012 29.88 841 24.83 1 33.8 90 -0.4 31.3
20:55 1012 29.88 841 24.83 1.1 33.9 90 -0.4 31.3
21:00 1012 29.88 841 24.83 1 33.8 90 -0.5 31.2
21:05 1012 29.88 841 24.83 1 33.8 90 -0.5 31.2
21:10 1012 29.88 841 24.83 1 33.8 90 -0.5 31
21:15 1012 29.88 841 24.83 0.9 33.7 89 -0.6 30.8
21:20 1012 29.88 841 24.83 1 33.8 89 -0.6 31
21:25 1012 29.88 841 24.83 1 33.9 89 -0.5 31
21:30 1012 29.88 841 24.83 1.1 33.9 89 -0.6 31
21:35 1012 29.88 842 24.86 0.9 33.6 90 -0.6 30.9
21:40 1012 29.88 842 24.86 0.8 33.4 90 -0.7 30.8
21:45 1012 29.88 842 24.86 0.7 33.2 91 -0.6 30.9
21:50 1012 29.88 842 24.86 0.7 33.2 91 -0.6 30.9
21:55 1012 29.88 842 24.86 0.7 33.3 91 -0.6 31
22:00 1012 29.88 842 24.86 0.8 33.4 91 -0.5 31
22:05 1012 29.88 842 24.86 0.8 33.4 91 -0.5 31
22:10 1012 29.88 842 24.86 0.8 33.5 90 -0.5 31
22:15 1012 29.88 842 24.86 0.9 33.6 90 -0.5 31
22:20 1012 29.88 842 24.86 0.9 33.6 90 -0.5 31.1
22:25 1013 29.91 842 24.86 0.9 33.7 90 -0.5 31.1
22:30 1013 29.91 842 24.86 0.9 33.7 90 -0.6 31
22:35 1013 29.91 842 24.86 0.9 33.6 90 -0.6 30.9
22:40 1013 29.91 842 24.86 0.9 33.7 89 -0.6 30.9
22:45 1013 29.91 842 24.86 1 33.7 89 -0.7 30.8
22:50 1013 29.91 842 24.86 1 33.8 88 -0.7 30.7
22:55 1013 29.91 842 24.86 1 33.9 88 -0.7 30.7
23:00 1013 29.91 842 24.86 1.1 34 87 -0.7 30.7
23:05 1013 29.91 842 24.86 1.1 34.1 87 -0.7 30.7
23:10 1013 29.91 842 24.86 1.1 34.1 87 -0.7 30.7
23:15 1013 29.91 842 24.86 1.2 34.1 87 -0.8 30.6
23:20 1013 29.91 842 24.86 1.2 34.1 87 -0.8 30.6
23:25 1013 29.91 842 24.86 1.2 34.1 87 -0.7 30.8
23:30 1013 29.91 842 24.86 1.2 34.2 87 -0.7 30.8
23:35 1013 29.91 842 24.86 1.2 34.2 87 -0.7 30.7
23:40 1013 29.91 842 24.86 1.2 34.1 87 -0.8 30.6
23:45 1013 29.91 842 24.86 1.2 34.1 87 -0.8 30.5
23:50 1013 29.91 842 24.86 1.2 34.1 86 -0.8 30.5
23:55 1013 29.91 842 24.86 1.2 34.2 85 -1 30.2
24:00 1013 29.91 842 24.86 1.2 34.2 86 -0.9 30.3